Waskish, Minnesota
Current Conditions -  °F | °C
As of 10:34 PM on Monday 20 Oct 2014 (Local Time) from KVWU Reporting Station
Clear Clear  
Wind Chill: 30°   Ceiling: Unl
Heat Index: 30°   Visibility: 10mi
Dew Point: 28°   Wind: 0mph
Humidity: 93%   Direction: NA
Pressure: 30.11"   Gusts: NA
Location:  48.16°N, 94.51°W
Report Text: KVWU 210334Z AUTO 00000KT 10SM CLR M01/M02 A3011 RMK AO2
Loading
Personal Weather Stations






























Interactive Weather Map
Tropical Storm Tracking
New forecast layout! Learn more

10-Day Weather Forecast

Advertisements
Track Severe Weather on mobile